Time;durP1;ratioP1;P1;durP2;ratioP2;P2;SDS_P1;SDS_P2;PMS_P1;PMS_P2;Temp;Humidity;BMP_temperature;BMP_pressure;BME280_temperature;BME280_humidity;BME280_pressure;Samples;Min_cycle;Max_cycle;Signal;HPM_P1;HPM_P2
2023/04/05 00:02:20;;;;;;;8.27;4.40;;;;;;;18.03;42.05;101302.47;5033384;28;20046;-51
2023/04/05 00:04:51;;;;;;;6.25;4.22;;;;;;;18.03;42.04;101310.50;5033766;28;20050;-49
2023/04/05 00:07:20;;;;;;;7.03;4.47;;;;;;;18.02;42.14;101298.91;5033327;28;20049;-50
2023/04/05 00:09:48;;;;;;;6.07;4.28;;;;;;;18.03;41.91;101306.00;5033220;28;20045;-49
2023/04/05 00:12:15;;;;;;;7.00;4.05;;;;;;;18.03;41.70;101305.13;5033665;28;20053;-48
2023/04/05 00:14:43;;;;;;;6.25;3.85;;;;;;;18.03;42.06;101307.81;5033182;28;20403;-49
2023/04/05 00:17:10;;;;;;;5.45;4.10;;;;;;;18.02;41.97;101306.94;5033540;28;20041;-53
2023/04/05 00:19:38;;;;;;;6.43;3.92;;;;;;;18.01;41.99;101315.94;5033101;28;20056;-49
2023/04/05 00:22:09;;;;;;;6.88;4.13;;;;;;;18.02;41.79;101303.41;5033031;28;20050;-49
2023/04/05 00:24:37;;;;;;;5.57;3.83;;;;;;;18.01;41.83;101305.22;5036384;28;20060;-49
2023/04/05 00:27:05;;;;;;;7.90;4.63;;;;;;;18.02;41.94;101314.13;5053252;28;20388;-48
2023/04/05 00:29:33;;;;;;;6.88;4.03;;;;;;;18.01;42.02;101305.22;5053052;28;20044;-50
2023/04/05 00:32:03;;;;;;;6.03;3.95;;;;;;;18.01;41.72;101301.69;5051314;28;20068;-47
2023/04/05 00:34:32;;;;;;;7.97;4.03;;;;;;;18.01;41.74;101309.72;5053605;28;20483;-50
2023/04/05 00:37:00;;;;;;;6.70;4.35;;;;;;;18.00;41.92;101310.72;5052946;28;20056;-49
2023/04/05 00:39:27;;;;;;;6.63;3.90;;;;;;;18.01;41.79;101317.78;5052897;28;20033;-50
2023/04/05 00:41:55;;;;;;;5.82;3.60;;;;;;;18.00;41.73;101305.34;5053021;28;20057;-52
2023/04/05 00:44:22;;;;;;;8.35;3.67;;;;;;;18.00;41.75;101311.56;5051152;28;20049;-47
2023/04/05 00:46:50;;;;;;;5.22;3.85;;;;;;;18.00;41.74;101306.19;5031588;28;20045;-52
2023/04/05 00:49:17;;;;;;;7.57;4.13;;;;;;;18.00;41.69;101308.03;5033028;28;20480;-52
2023/04/05 00:51:45;;;;;;;6.00;3.58;;;;;;;17.99;41.72;101307.19;5032125;28;20080;-51
2023/04/05 00:54:14;;;;;;;4.25;3.28;;;;;;;18.00;41.74;101310.72;5032741;28;20041;-50
2023/04/05 00:56:41;;;;;;;5.75;3.72;;;;;;;17.99;41.60;101309.84;5033090;28;20045;-49
2023/04/05 00:59:08;;;;;;;5.45;3.60;;;;;;;17.98;41.62;101308.13;5036541;28;20060;-49
2023/04/05 01:01:39;;;;;;;5.88;3.60;;;;;;;17.99;41.62;101303.66;5036549;28;20045;-50
2023/04/05 01:04:10;;;;;;;5.32;3.58;;;;;;;17.99;41.61;101299.16;5036714;28;20127;-50
2023/04/05 01:06:58;;;;;;;6.90;3.55;;;;;;;17.98;41.55;101299.22;5037040;28;20068;-52
2023/04/05 01:09:39;;;;;;;9.15;4.18;;;;;;;17.97;41.78;101295.72;5035507;28;20057;-50
2023/04/05 01:12:10;;;;;;;5.00;3.55;;;;;;;17.98;41.62;101291.19;5036023;28;20049;-50
2023/04/05 01:14:51;;;;;;;6.35;3.80;;;;;;;17.97;41.77;101300.22;5036724;28;20523;-47
2023/04/05 01:17:21;;;;;;;5.32;3.88;;;;;;;17.97;41.81;101309.09;5036152;28;20061;-47
2023/04/05 01:19:57;;;;;;;4.50;3.17;;;;;;;17.97;41.75;101298.38;5034525;28;20068;-50
2023/04/05 01:23:02;;;;;;;6.72;3.95;;;;;;;17.96;41.76;101295.81;5036244;28;20092;-49
2023/04/05 01:25:50;;;;;;;6.00;3.90;;;;;;;17.97;41.83;101294.84;5036496;28;20385;-50
2023/04/05 01:28:18;;;;;;;6.55;3.80;;;;;;;17.96;41.69;101301.19;5034801;28;20403;-47
2023/04/05 01:30:57;;;;;;;10.35;3.38;;;;;;;17.96;41.74;101295.81;5034345;28;20049;-47
2023/04/05 01:33:33;;;;;;;7.63;3.47;;;;;;;17.95;41.75;101292.31;5036217;28;20511;-48
2023/04/05 01:36:30;;;;;;;5.20;3.28;;;;;;;17.95;41.66;101291.44;5036444;28;20053;-50
2023/04/05 01:39:03;;;;;;;5.10;3.17;;;;;;;17.95;41.75;101291.44;5036825;28;20403;-51
2023/04/05 01:41:31;;;;;;;5.32;2.75;;;;;;;17.95;41.71;101288.75;5052245;28;20045;-51
2023/04/05 01:43:58;;;;;;;5.95;3.47;;;;;;;17.94;41.83;101295.06;5055744;28;20045;-50
2023/04/05 01:46:27;;;;;;;4.43;2.97;;;;;;;17.93;41.61;101288.84;5043234;28;20514;-48
2023/04/05 01:48:55;;;;;;;5.18;3.33;;;;;;;17.94;41.68;101289.72;5035111;28;20064;-48
2023/04/05 01:51:22;;;;;;;6.32;3.50;;;;;;;17.94;41.53;101289.72;5035524;28;20479;-47
2023/04/05 01:53:50;;;;;;;5.18;3.50;;;;;;;17.94;41.63;101287.88;5035907;28;20057;-49
2023/04/05 01:56:17;;;;;;;5.60;3.05;;;;;;;17.93;41.63;101283.50;5035923;28;20052;-50
2023/04/05 01:58:44;;;;;;;4.70;3.03;;;;;;;17.93;41.79;101288.00;5034525;28;20067;-50
2023/04/05 02:01:12;;;;;;;6.25;3.33;;;;;;;17.92;41.76;101289.84;5034514;28;20057;-49
2023/04/05 02:03:39;;;;;;;4.00;2.63;;;;;;;17.92;41.63;101286.31;5035469;28;20042;-51
2023/04/05 02:06:06;;;;;;;5.88;3.03;;;;;;;17.92;41.70;101286.31;5034566;28;20415;-48
2023/04/05 02:08:34;;;;;;;5.63;3.10;;;;;;;17.91;41.51;101290.81;5035536;28;20045;-49
2023/04/05 02:11:01;;;;;;;4.10;2.70;;;;;;;17.91;41.59;101298.84;5035055;28;20068;-46
2023/04/05 02:13:29;;;;;;;4.78;3.45;;;;;;;17.92;41.73;101291.66;5034117;28;20064;-49
2023/04/05 02:15:56;;;;;;;5.32;3.33;;;;;;;17.91;41.85;101298.84;5033596;28;20487;-51
2023/04/05 02:18:30;;;;;;;5.45;3.08;;;;;;;17.90;41.74;101296.25;5034153;28;20060;-50
2023/04/05 02:21:02;;;;;;;4.78;3.47;;;;;;;17.90;41.80;101305.16;5034051;28;20120;-50
2023/04/05 02:23:31;;;;;;;5.75;2.72;;;;;;;17.90;41.80;101306.97;5035228;28;20491;-49
2023/04/05 02:25:59;;;;;;;4.90;2.90;;;;;;;17.90;41.88;101307.81;5046953;28;20057;-51
2023/04/05 02:28:26;;;;;;;4.20;2.78;;;;;;;17.89;41.75;101306.13;5055276;28;20399;-50
2023/04/05 02:30:54;;;;;;;4.88;2.85;;;;;;;17.89;41.74;101308.78;5054844;28;20472;-53
2023/04/05 02:33:22;;;;;;;4.70;2.65;;;;;;;17.90;41.76;101309.66;5053834;28;20068;-50
2023/04/05 02:35:50;;;;;;;4.30;2.65;;;;;;;17.89;41.81;101308.78;5054950;28;20052;-51
2023/04/05 02:38:18;;;;;;;5.00;3.28;;;;;;;17.89;41.79;101313.31;5055188;28;20045;-51
2023/04/05 02:40:48;;;;;;;6.13;3.65;;;;;;;17.89;41.78;101316.84;5054798;28;20049;-52
2023/04/05 02:43:15;;;;;;;6.45;3.30;;;;;;;17.89;41.78;101313.31;5053556;28;20407;-53
2023/04/05 02:45:42;;;;;;;4.05;3.05;;;;;;;17.88;41.73;101317.81;5054775;28;20147;-48
2023/04/05 02:48:13;;;;;;;4.07;2.88;;;;;;;17.88;41.80;101308.91;5035306;28;20045;-47
2023/04/05 02:50:41;;;;;;;4.97;3.05;;;;;;;17.88;41.80;101317.81;5033639;28;20057;-46
2023/04/05 02:53:10;;;;;;;4.65;3.10;;;;;;;17.88;41.73;101316.97;5034511;28;20049;-47
2023/04/05 02:55:40;;;;;;;4.05;3.10;;;;;;;17.87;41.87;101315.25;5034905;28;20064;-50
2023/04/05 02:58:08;;;;;;;4.35;2.88;;;;;;;17.88;41.81;101308.91;5033315;28;20057;-49
2023/04/05 03:00:49;;;;;;;5.10;2.75;;;;;;;17.88;41.82;101311.59;5032883;28;20049;-48
2023/04/05 03:03:22;;;;;;;5.00;3.05;;;;;;;17.86;41.81;101306.34;5033742;28;20504;-48
2023/04/05 03:06:00;;;;;;;6.13;3.08;;;;;;;17.86;41.88;101311.69;5033737;28;20634;-50
2023/04/05 03:08:35;;;;;;;4.35;3.00;;;;;;;17.86;41.64;101313.50;5033069;28;20046;-47
2023/04/05 03:11:05;;;;;;;4.88;3.25;;;;;;;17.85;41.78;101303.78;5032856;28;20045;-50
2023/04/05 03:13:33;;;;;;;4.35;2.92;;;;;;;17.86;41.79;101306.34;5033416;28;20057;-48
2023/04/05 03:16:04;;;;;;;5.43;3.17;;;;;;;17.85;41.86;101312.66;5032521;28;20057;-47
2023/04/05 03:18:31;;;;;;;4.40;2.90;;;;;;;17.85;41.86;101306.47;5033972;28;20049;-47
2023/04/05 03:21:05;;;;;;;4.93;3.38;;;;;;;17.85;41.74;101309.97;5033672;28;20042;-48
2023/04/05 03:23:37;;;;;;;5.07;2.90;;;;;;;17.85;41.81;101309.13;5032652;28;20050;-47
2023/04/05 03:26:05;;;;;;;7.22;3.22;;;;;;;17.85;41.73;101304.63;5034679;28;20049;-48
2023/04/05 03:28:36;;;;;;;6.32;3.38;;;;;;;17.85;41.85;101311.81;5032387;28;20049;-47
2023/04/05 03:31:06;;;;;;;4.72;3.25;;;;;;;17.85;41.75;101306.47;5033116;28;20041;-47
2023/04/05 03:33:33;;;;;;;4.28;2.70;;;;;;;17.85;41.82;101307.31;5032442;28;20388;-47
2023/04/05 03:36:04;;;;;;;3.78;2.58;;;;;;;17.84;41.69;101302.94;5032211;28;20049;-50
2023/04/05 03:38:34;;;;;;;5.30;2.75;;;;;;;17.85;41.87;101311.81;5033081;28;20037;-49
2023/04/05 03:41:12;;;;;;;6.07;3.30;;;;;;;17.84;41.67;101305.59;5039515;28;20045;-52
2023/04/05 03:43:40;;;;;;;4.70;2.95;;;;;;;17.83;41.74;101303.91;5052523;28;20049;-50
2023/04/05 03:46:08;;;;;;;4.13;2.88;;;;;;;17.83;41.65;101303.03;5053596;28;20053;-47
2023/04/05 03:48:35;;;;;;;5.22;3.53;;;;;;;17.83;41.71;101305.72;5042412;28;20387;-47
2023/04/05 03:51:03;;;;;;;5.70;3.03;;;;;;;17.82;41.71;101302.16;5032188;28;20495;-48
2023/04/05 03:53:31;;;;;;;4.03;2.70;;;;;;;17.82;41.78;101302.16;5034131;28;20049;-47
2023/04/05 03:55:59;;;;;;;6.05;3.10;;;;;;;17.82;41.72;101306.66;5032952;28;20045;-47
2023/04/05 03:58:52;;;;;;;6.25;3.00;;;;;;;17.82;41.74;101304.84;5034419;28;20527;-47
2023/04/05 04:01:24;;;;;;;4.05;2.53;;;;;;;17.82;41.60;101306.66;5032321;28;20052;-47
2023/04/05 04:03:52;;;;;;;6.03;3.03;;;;;;;17.81;41.63;101308.50;5032265;28;20057;-48
2023/04/05 04:06:20;;;;;;;5.10;3.35;;;;;;;17.82;41.53;101299.50;5032224;28;20049;-49
2023/04/05 04:08:47;;;;;;;5.03;3.28;;;;;;;17.82;41.69;101295.97;5033273;28;20050;-52
2023/04/05 04:11:15;;;;;;;4.20;2.75;;;;;;;17.81;41.69;101302.28;5033079;28;20049;-49
2023/04/05 04:13:42;;;;;;;6.78;3.70;;;;;;;17.81;41.58;101299.59;5033026;28;20050;-51
2023/04/05 04:16:23;;;;;;;4.35;2.60;;;;;;;17.79;41.56;101300.59;5031860;28;20411;-49
2023/04/05 04:19:17;;;;;;;6.18;3.05;;;;;;;17.80;41.69;101298.75;5032101;28;20050;-47
2023/04/05 04:21:50;;;;;;;4.10;3.08;;;;;;;17.79;41.37;101291.69;5032945;28;20050;-48
2023/04/05 04:24:33;;;;;;;4.20;2.90;;;;;;;17.79;41.57;101297.91;5032109;28;20057;-48
2023/04/05 04:27:27;;;;;;;5.40;2.83;;;;;;;17.78;41.50;101293.53;5059675;28;20056;-48
2023/04/05 04:30:21;;;;;;;4.07;2.58;;;;;;;17.78;41.56;101289.97;5053642;28;20049;-47
2023/04/05 04:33:27;;;;;;;4.88;3.22;;;;;;;17.78;41.57;101296.19;5057786;28;20064;-47
2023/04/05 04:36:16;;;;;;;3.95;2.58;;;;;;;17.78;41.47;101296.19;5056873;28;20049;-49
2023/04/05 04:39:12;;;;;;;4.05;2.83;;;;;;;17.78;41.46;101296.19;5058964;28;20053;-50
2023/04/05 04:42:00;;;;;;;5.07;3.17;;;;;;;17.78;41.35;101301.56;5067005;28;20494;-51
2023/04/05 04:44:47;;;;;;;3.63;2.80;;;;;;;17.77;41.46;101301.66;5059294;28;20064;-52
2023/04/05 04:47:30;;;;;;;4.25;2.78;;;;;;;17.77;41.03;101298.97;5058310;28;20052;-48
2023/04/05 04:50:19;;;;;;;3.42;2.55;;;;;;;17.76;41.24;101300.78;5039836;28;20053;-49
2023/04/05 04:52:47;;;;;;;6.38;2.80;;;;;;;17.76;41.27;101306.16;5039191;28;20045;-51
2023/04/05 04:55:15;;;;;;;5.88;2.85;;;;;;;17.76;41.27;101314.19;5039688;28;20045;-49
2023/04/05 04:57:45;;;;;;;5.03;3.35;;;;;;;17.75;41.19;101301.78;5038361;28;20064;-51
2023/04/05 05:00:14;;;;;;;6.38;3.17;;;;;;;17.74;40.99;101308.09;5039205;28;20522;-51
2023/04/05 05:02:42;;;;;;;4.85;2.83;;;;;;;17.75;41.17;101304.44;5037937;28;20061;-48
2023/04/05 05:05:13;;;;;;;5.40;3.00;;;;;;;17.73;41.08;101311.69;5038089;28;20411;-48
2023/04/05 05:07:41;;;;;;;4.20;2.70;;;;;;;17.74;41.14;101309.84;5038979;28;20396;-50
2023/04/05 05:10:10;;;;;;;4.80;2.88;;;;;;;17.74;41.20;101307.19;5039520;28;20042;-50
2023/04/05 05:12:37;;;;;;;4.88;2.92;;;;;;;17.73;41.18;101317.03;5038974;28;20049;-47
2023/04/05 05:15:05;;;;;;;5.50;2.78;;;;;;;17.73;41.03;101311.69;5039176;28;20496;-49
2023/04/05 05:17:34;;;;;;;6.65;3.10;;;;;;;17.73;41.08;101303.66;5039713;28;20365;-51
2023/04/05 05:20:03;;;;;;;3.78;2.70;;;;;;;17.72;41.10;101315.34;5038943;28;20049;-49
2023/04/05 05:22:30;;;;;;;4.57;3.17;;;;;;;17.73;41.10;101317.03;5039518;28;20048;-49
2023/04/05 05:24:58;;;;;;;4.55;3.03;;;;;;;17.72;40.99;101318.00;5039176;28;20057;-47
2023/04/05 05:27:25;;;;;;;6.07;2.85;;;;;;;17.72;40.92;101318.00;5039259;28;20041;-47
2023/04/05 05:29:52;;;;;;;5.45;2.67;;;;;;;17.72;41.02;101323.38;5039494;28;20053;-47
2023/04/05 05:32:21;;;;;;;4.35;2.80;;;;;;;17.72;41.09;101322.53;5038989;28;20049;-49
2023/04/05 05:34:49;;;;;;;4.50;2.38;;;;;;;17.71;40.95;101321.66;5038875;28;20053;-49
2023/04/05 05:37:17;;;;;;;4.40;2.58;;;;;;;17.72;41.05;101328.72;5039304;28;20045;-48
2023/04/05 05:39:44;;;;;;;4.93;3.38;;;;;;;17.71;41.02;101334.19;5039013;28;20056;-49
2023/04/05 05:42:11;;;;;;;4.18;2.55;;;;;;;17.70;41.16;101328.00;5044666;28;20041;-50
2023/04/05 05:44:39;;;;;;;4.18;2.63;;;;;;;17.71;41.05;101345.78;5055716;28;20045;-47
2023/04/05 05:47:06;;;;;;;5.15;2.90;;;;;;;17.71;41.06;101344.91;5055832;28;20502;-49
2023/04/05 05:49:33;;;;;;;4.78;3.13;;;;;;;17.70;41.13;101340.50;5052136;28;20053;-47
2023/04/05 05:52:02;;;;;;;3.88;2.60;;;;;;;17.70;41.12;101344.06;5034423;28;20064;-47
2023/04/05 05:54:29;;;;;;;5.32;2.88;;;;;;;17.69;41.18;101339.66;5036130;28;20045;-50
2023/04/05 05:56:57;;;;;;;5.93;2.50;;;;;;;17.71;40.97;101347.59;5035624;28;20043;-49
2023/04/05 05:59:25;;;;;;;5.53;2.92;;;;;;;17.70;41.08;101341.38;5035816;28;20415;-49
2023/04/05 06:01:54;;;;;;;4.53;2.80;;;;;;;17.70;41.20;101345.84;5036034;28;20050;-49
2023/04/05 06:04:21;;;;;;;3.78;2.70;;;;;;;17.70;41.01;101348.53;5035433;28;20045;-47
2023/04/05 06:06:50;;;;;;;6.13;3.10;;;;;;;17.68;41.28;101343.28;5033811;28;20492;-49
2023/04/05 06:09:17;;;;;;;5.03;2.70;;;;;;;17.69;41.15;101342.31;5035774;28;20053;-48
2023/04/05 06:11:45;;;;;;;5.05;2.80;;;;;;;17.70;41.18;101343.19;5035273;28;20049;-49
2023/04/05 06:14:23;;;;;;;4.35;2.85;;;;;;;17.70;41.16;101348.53;5035806;28;20049;-49
2023/04/05 06:16:51;;;;;;;5.60;3.17;;;;;;;17.71;41.23;101342.25;5035793;28;20049;-49
2023/04/05 06:19:19;;;;;;;4.90;3.47;;;;;;;17.70;41.29;101341.38;5035187;28;20052;-52
2023/04/05 06:21:46;;;;;;;3.75;2.55;;;;;;;17.70;41.13;101341.38;5035039;28;20046;-49
2023/04/05 06:24:14;;;;;;;4.50;2.53;;;;;;;17.70;41.17;101336.03;5033760;28;20060;-49
2023/04/05 06:26:41;;;;;;;4.28;2.90;;;;;;;17.71;41.23;101347.59;5046462;28;20052;-47
2023/04/05 06:29:08;;;;;;;4.70;2.90;;;;;;;17.70;41.11;101341.38;5054938;28;20057;-48
2023/04/05 06:31:36;;;;;;;7.45;2.92;;;;;;;17.71;41.24;101347.59;5055104;28;20518;-51
2023/04/05 06:34:03;;;;;;;5.70;3.00;;;;;;;17.72;41.22;101344.78;5055103;28;20049;-46
2023/04/05 06:36:32;;;;;;;4.72;3.17;;;;;;;17.72;41.29;101333.22;5054898;28;20051;-48
2023/04/05 06:39:00;;;;;;;3.30;2.47;;;;;;;17.73;41.45;101342.97;5055109;28;20052;-50
2023/04/05 06:41:28;;;;;;;5.03;2.85;;;;;;;17.72;41.27;101342.13;5055149;28;20045;-53
2023/04/05 06:43:55;;;;;;;6.13;3.17;;;;;;;17.72;41.26;101342.13;5054762;28;20067;-50
2023/04/05 06:46:23;;;;;;;4.68;3.13;;;;;;;17.73;41.23;101345.66;5054668;28;20052;-48
2023/04/05 06:48:51;;;;;;;4.45;2.72;;;;;;;17.73;41.06;101340.28;5054974;28;20487;-48
2023/04/05 06:51:19;;;;;;;5.07;3.03;;;;;;;17.74;41.12;101344.66;5044378;28;20045;-49
2023/04/05 06:53:46;;;;;;;5.28;3.00;;;;;;;17.75;41.24;101338.41;5032588;28;20053;-47
2023/04/05 06:56:13;;;;;;;4.68;2.75;;;;;;;17.74;41.07;101342.91;5033542;28;20056;-47
2023/04/05 06:58:40;;;;;;;7.68;2.63;;;;;;;17.74;41.01;101342.00;5054391;28;20065;-46
2023/04/05 07:01:08;;;;;;;6.60;3.00;;;;;;;17.75;41.29;101343.75;5053915;28;20049;-48
2023/04/05 07:03:35;;;;;;;9.60;3.40;;;;;;;17.77;40.97;101339.13;5053533;28;20048;-48
2023/04/05 07:06:03;;;;;;;7.35;2.83;;;;;;;17.78;40.76;101348.88;5054078;28;20056;-56
2023/04/05 07:08:32;;;;;;;6.55;3.13;;;;;;;17.81;39.92;101346.00;5053146;28;20053;-56
2023/04/05 07:10:59;;;;;;;5.47;3.15;;;;;;;17.81;39.55;101346.00;5053184;28;20045;-54
2023/04/05 07:13:27;;;;;;;5.13;3.17;;;;;;;17.83;39.37;101348.56;5054259;28;20056;-53
2023/04/05 07:16:01;;;;;;;8.75;3.25;;;;;;;17.83;39.51;101352.09;5054522;28;20095;-47
2023/04/05 07:18:29;;;;;;;6.88;3.47;;;;;;;17.84;39.30;101351.13;5054176;28;20048;-49
2023/04/05 07:21:03;;;;;;;6.90;3.95;;;;;;;17.85;40.24;101347.47;5052994;28;20056;-48
2023/04/05 07:23:30;;;;;;;4.80;3.13;;;;;;;17.86;40.02;101353.69;5054164;28;20479;-47
2023/04/05 07:26:01;;;;;;;6.55;3.33;;;;;;;17.85;39.39;101342.13;5053581;28;20491;-48
2023/04/05 07:28:30;;;;;;;8.70;3.53;;;;;;;17.87;39.19;101347.41;5053700;28;20056;-53
2023/04/05 07:30:58;;;;;;;11.05;3.97;;;;;;;17.87;39.21;101350.06;5053818;28;20056;-51
2023/04/05 07:33:26;;;;;;;5.57;3.42;;;;;;;17.88;40.26;101351.78;5053937;28;20052;-53
2023/04/05 07:35:56;;;;;;;6.25;3.75;;;;;;;17.88;39.57;101351.78;5053802;28;20045;-49
2023/04/05 07:38:25;;;;;;;8.77;3.63;;;;;;;17.87;40.59;101352.75;5054083;28;20048;-46
2023/04/05 07:40:53;;;;;;;8.73;3.30;;;;;;;17.88;41.11;101351.78;5053418;28;20391;-51
2023/04/05 07:43:20;;;;;;;6.97;3.63;;;;;;;17.90;40.80;101363.22;5053299;28;20041;-51
2023/04/05 07:45:48;;;;;;;7.20;3.47;;;;;;;17.90;38.90;101353.34;5053960;28;20049;-48
2023/04/05 07:48:15;;;;;;;6.10;3.72;;;;;;;17.91;38.03;101356.91;5053558;28;20064;-46
2023/04/05 07:50:46;;;;;;;6.43;3.58;;;;;;;17.93;38.67;101354.97;5052467;28;20041;-52
2023/04/05 07:53:14;;;;;;;6.78;3.50;;;;;;;17.92;37.34;101362.16;5035049;28;20488;-47
2023/04/05 07:55:41;;;;;;;5.65;3.33;;;;;;;17.94;37.70;101362.03;5040999;28;20387;-47
2023/04/05 07:58:09;;;;;;;4.80;3.00;;;;;;;17.94;38.00;101359.34;5052937;28;20368;-53
2023/04/05 08:00:37;;;;;;;6.30;3.95;;;;;;;17.94;37.41;101362.03;5053347;28;20056;-47
2023/04/05 08:03:05;;;;;;;5.07;3.53;;;;;;;17.94;35.71;101354.00;5052848;28;20380;-50
2023/04/05 08:05:33;;;;;;;6.45;3.47;;;;;;;17.94;35.30;101362.88;5052821;28;20048;-46
2023/04/05 08:08:00;;;;;;;11.70;3.70;;;;;;;17.93;34.53;101360.34;5053136;28;20060;-49
2023/04/05 08:10:27;;;;;;;4.93;3.00;;;;;;;17.94;38.48;101367.41;5052896;28;20430;-48
2023/04/05 08:12:54;;;;;;;6.90;2.80;;;;;;;17.95;37.92;101361.94;5052685;28;20048;-48
2023/04/05 08:15:22;;;;;;;7.55;2.90;;;;;;;17.97;37.24;101367.19;5051443;28;20049;-49
2023/04/05 08:17:49;;;;;;;4.65;2.25;;;;;;;17.97;37.37;101367.19;5052245;28;20045;-48
2023/04/05 08:20:17;;;;;;;6.95;3.03;;;;;;;17.99;38.09;101365.25;5052644;28;20519;-52
2023/04/05 08:22:44;;;;;;;4.07;2.80;;;;;;;17.99;39.33;101363.44;5053099;28;20518;-51
2023/04/05 08:25:11;;;;;;;5.60;2.90;;;;;;;18.00;39.39;101370.50;5052514;28;20400;-48
2023/04/05 08:27:38;;;;;;;7.60;2.63;;;;;;;18.01;39.21;101374.03;5051677;28;20041;-49
2023/04/05 08:30:07;;;;;;;7.40;3.28;;;;;;;18.01;39.09;101369.53;5053355;28;20056;-49
2023/04/05 08:32:35;;;;;;;5.80;3.13;;;;;;;18.01;38.94;101372.19;5052895;28;20049;-49
2023/04/05 08:35:02;;;;;;;7.07;2.90;;;;;;;18.03;38.62;101374.78;5052572;28;20490;-49
2023/04/05 08:37:34;;;;;;;4.70;2.40;;;;;;;18.04;38.26;101373.81;5051036;28;20490;-50
2023/04/05 08:40:02;;;;;;;5.63;2.80;;;;;;;18.04;38.50;101377.34;5052942;28;20041;-57
2023/04/05 08:42:37;;;;;;;5.10;3.28;;;;;;;18.04;38.38;101376.50;5052801;28;20056;-56
2023/04/05 08:45:08;;;;;;;6.32;2.85;;;;;;;18.04;38.29;101368.47;5052149;28;20041;-50
2023/04/05 08:47:37;;;;;;;6.22;3.08;;;;;;;18.05;37.90;101372.84;5052430;28;20578;-50
2023/04/05 08:50:06;;;;;;;7.32;2.72;;;;;;;18.05;38.05;101372.84;5050651;28;20061;-50
2023/04/05 08:52:36;;;;;;;4.95;3.33;;;;;;;18.04;38.06;101365.78;5048635;28;20060;-48
2023/04/05 08:55:05;;;;;;;4.35;2.35;;;;;;;18.05;37.78;101370.16;5029820;28;20044;-46
2023/04/05 08:57:36;;;;;;;6.05;3.00;;;;;;;18.05;37.83;101372.84;5032330;28;20157;-50
2023/04/05 09:00:06;;;;;;;3.92;2.45;;;;;;;18.05;37.91;101370.16;5033123;28;20060;-50
2023/04/05 09:02:35;;;;;;;7.25;2.85;;;;;;;18.05;37.90;101372.84;5032826;28;20068;-54
2023/04/05 09:05:07;;;;;;;6.63;2.58;;;;;;;18.06;38.11;101376.38;5032670;28;20072;-50
2023/04/05 09:07:36;;;;;;;7.07;3.45;;;;;;;18.05;38.02;101375.53;5032672;28;20050;-50
2023/04/05 09:10:05;;;;;;;4.53;2.70;;;;;;;18.06;37.85;101376.38;5032668;28;20488;-49
2023/04/05 09:12:34;;;;;;;5.25;2.53;;;;;;;18.06;38.13;101382.59;5032180;28;20037;-45
2023/04/05 09:15:02;;;;;;;4.70;2.20;;;;;;;18.08;38.05;101387.84;5032544;28;20049;-46
2023/04/05 09:17:31;;;;;;;4.28;2.45;;;;;;;18.10;38.11;101380.56;5032482;28;20053;-48
2023/04/05 09:19:58;;;;;;;5.00;2.72;;;;;;;18.09;38.06;101382.38;5035894;28;20107;-48
2023/04/05 09:22:26;;;;;;;4.97;3.15;;;;;;;18.10;38.00;101372.50;5036187;28;20053;-53
2023/04/05 09:24:53;;;;;;;3.13;2.03;;;;;;;18.10;38.42;101376.03;5036007;28;20511;-49
2023/04/05 09:27:22;;;;;;;5.68;2.40;;;;;;;18.11;38.46;101380.47;5035103;28;20050;-49
2023/04/05 09:29:59;;;;;;;4.30;2.35;;;;;;;18.12;38.41;101379.47;5035256;28;20053;-50
2023/04/05 09:32:28;;;;;;;6.18;2.30;;;;;;;18.12;38.18;101379.47;5036233;28;20052;-47
2023/04/05 09:35:00;;;;;;;7.95;2.55;;;;;;;18.15;38.97;101370.34;5034855;28;20049;-56
2023/04/05 09:37:30;;;;;;;5.38;2.75;;;;;;;18.15;38.46;101375.72;5034222;28;20381;-54
2023/04/05 09:40:03;;;;;;;4.13;2.35;;;;;;;18.15;37.91;101362.31;5035651;28;20053;-56
2023/04/05 09:42:43;;;;;;;3.58;2.10;;;;;;;18.15;38.14;101363.19;5035696;28;20057;-56
2023/04/05 09:45:12;;;;;;;4.97;2.58;;;;;;;18.15;38.31;101363.19;5053783;28;20041;-55
2023/04/05 09:47:56;;;;;;;4.68;1.77;;;;;;;18.16;38.38;101358.69;5053958;28;20060;-57
2023/04/05 09:50:24;;;;;;;4.95;2.28;;;;;;;18.17;38.56;101366.59;5055368;28;20483;-58
2023/04/05 09:53:15;;;;;;;3.63;1.92;;;;;;;18.17;38.39;101357.72;5053938;28;20423;-57
2023/04/05 09:55:45;;;;;;;3.15;1.65;;;;;;;18.17;38.55;101353.19;5033132;28;20057;-56
2023/04/05 09:58:18;;;;;;;4.03;2.05;;;;;;;18.19;39.06;101363.78;5035375;28;20041;-58
2023/04/05 10:00:53;;;;;;;6.25;2.28;;;;;;;18.21;39.39;101351.16;5036143;28;20392;-58
2023/04/05 10:03:46;;;;;;;3.88;2.03;;;;;;;18.21;38.23;101352.00;5054867;28;20059;-58
2023/04/05 10:06:15;;;;;;;4.60;2.13;;;;;;;18.22;38.86;101363.59;5055534;28;20052;-50
2023/04/05 10:08:46;;;;;;;5.57;2.75;;;;;;;18.23;38.52;101350.09;5055452;28;20049;-50
2023/04/05 10:11:17;;;;;;;3.58;1.98;;;;;;;18.22;37.56;101347.50;5056017;28;20052;-48
2023/04/05 10:13:45;;;;;;;4.18;1.80;;;;;;;18.23;37.79;101359.94;5055287;28;20045;-51
2023/04/05 10:16:19;;;;;;;7.15;2.05;;;;;;;18.22;38.09;101345.66;5055779;28;20483;-55
2023/04/05 10:18:50;;;;;;;4.03;1.83;;;;;;;18.23;38.34;101352.78;5055391;28;20056;-53
2023/04/05 10:21:22;;;;;;;6.70;1.98;;;;;;;18.23;38.57;101342.06;5055295;28;20049;-56
2023/04/05 10:23:58;;;;;;;6.55;1.80;;;;;;;18.23;37.92;101355.44;5055671;28;20168;-49
2023/04/05 10:26:48;;;;;;;6.47;2.53;;;;;;;18.23;37.75;101343.84;5055109;28;20515;-49
2023/04/05 10:29:22;;;;;;;3.70;1.92;;;;;;;18.24;38.05;101357.16;5054243;28;20045;-50
2023/04/05 10:31:58;;;;;;;7.10;2.17;;;;;;;18.23;38.28;101350.09;5053815;28;20056;-49
2023/04/05 10:34:44;;;;;;;3.75;1.70;;;;;;;18.23;38.27;101349.19;5054519;28;20045;-49
2023/04/05 10:37:28;;;;;;;4.35;1.95;;;;;;;18.24;37.89;101338.41;5054109;28;20056;-51
2023/04/05 10:40:01;;;;;;;3.25;2.22;;;;;;;18.22;35.26;101336.78;5054134;28;20403;-54
2023/04/05 10:42:41;;;;;;;4.55;2.53;;;;;;;18.21;36.11;101330.56;5054539;28;20053;-50
2023/04/05 10:45:13;;;;;;;10.90;2.30;;;;;;;18.19;35.80;101327.16;5054414;28;20456;-47
2023/04/05 10:47:47;;;;;;;6.60;2.30;;;;;;;18.19;35.98;101337.00;5054427;28;20060;-48
2023/04/05 10:50:24;;;;;;;4.93;1.60;;;;;;;18.19;36.20;101329.84;5054155;28;20037;-48
2023/04/05 10:52:52;;;;;;;7.10;1.80;;;;;;;18.18;36.74;101330.78;5054714;28;20056;-47
2023/04/05 10:55:22;;;;;;;3.13;1.40;;;;;;;18.17;37.52;101323.72;5044462;28;20036;-49
2023/04/05 10:57:50;;;;;;;3.70;1.90;;;;;;;18.18;37.50;101333.47;5037822;28;20037;-48
2023/04/05 11:00:18;;;;;;;4.40;1.85;;;;;;;18.18;37.49;101328.09;5053865;28;20056;-46
2023/04/05 11:02:48;;;;;;;3.58;1.88;;;;;;;18.17;37.35;101318.38;5054544;28;20056;-48
2023/04/05 11:05:33;;;;;;;4.30;1.73;;;;;;;18.16;37.27;101318.50;5054549;28;20430;-52
2023/04/05 11:08:06;;;;;;;3.80;1.95;;;;;;;18.15;37.07;101314.97;5054263;28;20061;-49
2023/04/05 11:10:36;;;;;;;4.40;2.13;;;;;;;18.15;37.01;101314.06;5054649;28;20056;-52
2023/04/05 11:13:06;;;;;;;4.88;1.95;;;;;;;18.14;37.07;101318.59;5054386;28;20289;-52
2023/04/05 11:15:34;;;;;;;4.00;2.20;;;;;;;18.14;36.66;101313.22;5054455;28;20037;-50
2023/04/05 11:18:15;;;;;;;3.40;1.90;;;;;;;18.13;37.08;101306.16;5054356;28;20045;-51
2023/04/05 11:20:45;;;;;;;4.13;1.80;;;;;;;18.13;36.92;101306.16;5054310;28;20049;-49
2023/04/05 11:23:15;;;;;;;5.45;1.95;;;;;;;18.13;36.85;101306.16;5054004;28;20041;-49
2023/04/05 11:25:50;;;;;;;3.67;2.00;;;;;;;18.12;36.96;101303.59;5054224;28;20064;-50
2023/04/05 11:28:36;;;;;;;4.38;1.77;;;;;;;18.11;36.59;101300.06;5053999;28;20056;-50
2023/04/05 11:31:21;;;;;;;7.20;1.83;;;;;;;18.12;36.76;101298.25;5054255;28;20045;-51
2023/04/05 11:33:48;;;;;;;6.18;1.65;;;;;;;18.12;37.02;101307.13;5054038;28;20056;-50
2023/04/05 11:36:44;;;;;;;3.00;1.52;;;;;;;18.11;36.93;101297.41;5053896;28;20486;-49
2023/04/05 11:39:21;;;;;;;2.75;1.40;;;;;;;18.11;36.77;101291.16;5053842;28;20403;-48
2023/04/05 11:41:55;;;;;;;5.55;2.05;;;;;;;18.10;36.64;101301.03;5053224;28;20049;-46
2023/04/05 11:44:24;;;;;;;3.83;1.70;;;;;;;18.11;36.47;101293.84;5053266;28;20045;-49